createdAt,value
2023-02-16T00:08:39.608Z,90.30
2023-02-16T00:20:40.060Z,89.81
2023-02-16T00:32:40.503Z,93.03
2023-02-16T00:44:40.958Z,95.17
2023-02-16T00:56:41.415Z,91.03
2023-02-16T01:08:41.890Z,92.80
2023-02-16T01:20:42.352Z,93.18
2023-02-16T01:32:42.803Z,92.67
2023-02-16T01:44:43.247Z,90.00
2023-02-16T01:56:43.652Z,91.13
2023-02-16T02:08:44.154Z,93.01
2023-02-16T02:20:44.579Z,93.10
2023-02-16T02:32:45.042Z,91.90
2023-02-16T02:44:45.515Z,92.36
2023-02-16T02:56:45.999Z,91.91
2023-02-16T03:08:46.396Z,93.30
2023-02-16T03:20:46.843Z,89.74
2023-02-16T03:32:47.267Z,91.20
2023-02-16T03:44:47.780Z,91.61
2023-02-16T03:56:48.226Z,91.84
2023-02-16T04:08:48.643Z,90.77
2023-02-16T04:20:49.141Z,93.24
2023-02-16T04:32:49.540Z,94.40
2023-02-16T04:44:50.027Z,93.74
2023-02-16T04:56:50.464Z,92.74
2023-02-16T05:08:50.902Z,91.31
2023-02-16T05:20:51.360Z,93.63
2023-02-16T05:32:51.819Z,93.02
2023-02-16T05:44:52.284Z,89.68
2023-02-16T05:56:52.767Z,90.56
2023-02-16T06:08:53.181Z,91.12
2023-02-16T06:20:53.608Z,93.69
2023-02-16T06:32:54.056Z,90.80
2023-02-16T06:44:54.536Z,90.13
2023-02-16T06:56:54.994Z,87.65
2023-02-16T07:08:55.404Z,91.35
2023-02-16T07:20:55.886Z,87.42
2023-02-16T07:32:56.330Z,87.77
2023-02-16T07:44:56.752Z,92.72
2023-02-16T07:56:57.187Z,92.65
2023-02-16T08:08:57.709Z,92.19
2023-02-16T08:21:04.163Z,88.76
2023-02-16T08:32:58.580Z,88.15
2023-02-16T08:44:59.151Z,88.52
2023-02-16T08:56:59.520Z,89.53
2023-02-16T09:08:59.911Z,86.76
2023-02-16T09:21:00.381Z,84.53
2023-02-16T09:33:00.846Z,79.66
2023-02-16T09:45:01.296Z,76.24
2023-02-16T09:57:01.783Z,73.69
2023-02-16T10:09:02.221Z,70.09
2023-02-16T10:21:02.858Z,69.59
2023-02-16T10:33:03.114Z,69.23
2023-02-16T10:45:03.538Z,66.09
2023-02-16T10:57:04.063Z,66.98
2023-02-16T11:09:04.516Z,68.53
2023-02-16T11:21:05.135Z,67.74
2023-02-16T11:33:05.415Z,67.25
2023-02-16T11:45:05.857Z,66.25
2023-02-16T11:57:06.260Z,64.93
2023-02-16T12:09:06.743Z,64.14
2023-02-16T12:21:07.180Z,63.47
2023-02-16T12:33:07.681Z,62.33
2023-02-16T12:45:08.128Z,63.06
2023-02-16T12:57:08.567Z,63.00
2023-02-16T13:09:09.040Z,61.59
2023-02-16T13:21:09.501Z,62.18
2023-02-16T13:33:09.929Z,64.37
2023-02-16T13:45:10.435Z,65.54
2023-02-16T13:57:10.872Z,66.90
2023-02-16T14:09:11.325Z,63.15
2023-02-16T14:21:11.738Z,62.73
2023-02-16T14:33:12.197Z,68.73
2023-02-16T14:45:12.685Z,69.19
2023-02-16T14:57:13.159Z,72.18
2023-02-16T15:09:13.613Z,74.34
2023-02-16T15:21:14.055Z,74.03
2023-02-16T15:33:14.459Z,73.22
2023-02-16T15:45:14.937Z,75.19
2023-02-16T15:57:15.397Z,76.49
2023-02-16T16:09:15.859Z,77.37
2023-02-16T16:21:16.303Z,79.27
2023-02-16T16:33:16.787Z,79.84
2023-02-16T16:45:17.196Z,80.99
2023-02-16T16:57:17.648Z,81.43
2023-02-16T17:09:18.104Z,82.00
2023-02-16T17:21:18.583Z,82.90
2023-02-16T17:33:18.994Z,88.25
2023-02-16T17:45:19.482Z,86.18
2023-02-16T17:57:19.918Z,86.60
2023-02-16T18:09:20.375Z,89.47
2023-02-16T18:21:20.784Z,90.17
2023-02-16T18:33:21.290Z,87.40
2023-02-16T18:45:21.766Z,90.29
2023-02-16T18:57:22.204Z,90.85
2023-02-16T19:09:22.653Z,87.78
2023-02-16T19:21:23.113Z,91.97
2023-02-16T19:33:23.516Z,87.44
2023-02-16T19:45:24.009Z,86.88
2023-02-16T19:57:24.472Z,86.66
2023-02-16T20:09:24.938Z,88.43
2023-02-16T20:21:25.357Z,89.96
2023-02-16T20:33:25.792Z,91.90
2023-02-16T20:45:26.260Z,89.88
2023-02-16T20:57:27.492Z,93.01
2023-02-16T21:09:27.173Z,91.80
2023-02-16T21:21:27.613Z,91.31
2023-02-16T21:33:28.061Z,92.54
2023-02-16T21:45:28.546Z,94.08
2023-02-16T21:57:28.976Z,94.88
2023-02-16T22:09:29.428Z,92.48
2023-02-16T22:21:29.895Z,93.64
2023-02-16T22:33:30.318Z,95.19
2023-02-16T22:45:30.919Z,91.17
2023-02-16T22:57:31.239Z,94.32
2023-02-16T23:09:31.663Z,93.36
2023-02-16T23:21:32.140Z,92.16
2023-02-16T23:33:32.590Z,94.59
2023-02-16T23:45:33.056Z,91.97
2023-02-16T23:57:33.442Z,93.60
